Latest Weather Observations for Gladstone Airport

IDQ60801

Issued at 7:05 pm EST Monday 24 November 2014 (issued every 30 minutes, with the page automatically refreshed every 10 minutes)

About weather observations | Map of weather stations | Latest weather observations for QLD | Other Formats
Station Details ID: 039326 Name: GLADSTONE AIRPORT Lat: -23.87 Lon: 151.22 Height: 16.6 m
Data from the previous 72 hours. | See also: Recent months at Gladstone Airport
Date/Time
EST
Temp
°C
App
Temp
°C
Dew
Point
Rel
Hum
%
Delta-T
°C
Wind Press
QNH
hPa
Press
MSL
hPa
Rain
since 9 am
mm
Dir
 
Spd
km/h
Gust
km/h
Spd
kts
Gust
kts
24/07:00pm 25.8 26.0 19.4 67 4.1 ENE 17 22 9 12 1014.5 1014.4 0.0
24/06:30pm 26.0 26.2 19.4 67 4.3 NE 17 22 9 12 1014.3 1014.2 0.0
24/06:00pm 26.2 26.1 19.6 67 4.3 NE 19 24 10 13 1014.0 1013.9 0.0
24/05:30pm 26.5 26.4 19.6 66 4.5 NE 19 26 10 14 1013.4 1013.3 0.0
24/05:00pm 26.9 26.4 19.0 62 5.1 NE 20 28 11 15 1013.2 1013.1 0.0
24/04:30pm 27.1 26.3 19.2 62 5.1 ENE 22 30 12 16 1013.2 1013.1 0.0
24/04:00pm 27.8 26.6 18.5 57 5.9 ENE 22 30 12 16 1013.2 1013.1 0.0
24/03:30pm 27.9 26.8 18.6 57 6.0 ENE 22 28 12 15 1013.4 1013.3 0.0
24/03:00pm 28.8 28.2 18.9 55 6.4 ENE 20 28 11 15 1013.7 1013.6 0.0
24/02:30pm 28.4 27.8 18.8 56 6.2 ENE 20 33 11 18 1014.1 1014.0 0.0
24/02:00pm 28.3 27.1 18.4 55 6.3 ENE 22 30 12 16 1014.4 1014.3 0.0
24/01:30pm 28.4 27.2 18.5 55 6.3 ENE 22 32 12 17 1014.7 1014.6 0.0
24/01:00pm 28.9 27.8 18.7 54 6.6 ENE 22 32 12 17 1015.1 1015.1 0.0
24/12:30pm 29.0 28.2 19.3 55 6.3 ENE 22 32 12 17 1015.4 1015.4 0.0
24/12:00pm 28.4 28.0 19.3 57 5.9 ENE 20 30 11 16 1015.9 1015.9 0.0
24/11:30am 28.8 28.1 18.6 54 6.6 ENE 20 35 11 19 1016.2 1016.2 0.0
24/11:00am 28.6 27.8 19.2 56 6.1 NNE 22 32 12 17 1016.6 1016.6 0.0
24/10:30am 28.9 28.2 19.5 57 6.1 ENE 22 32 12 17 1016.7 1016.7 0.0
24/10:00am 27.8 27.4 19.3 60 5.5 NE 20 30 11 16 1017.1 1017.1 0.0
24/09:30am 27.5 27.5 20.1 64 4.8 NE 20 30 11 16 1017.3 1017.3 0.0
24/09:00am 26.7 26.6 19.6 65 4.6 ENE 19 26 10 14 1017.3 1017.3 0.0
24/08:30am 27.7 28.2 20.0 63 5.0 NNE 17 24 9 13 1017.3 1017.3 0.0
24/08:00am 25.8 28.8 20.8 74 3.3 S 6 9 3 5 1017.4 1017.4 0.0
24/07:30am 24.7 27.2 20.2 76 2.9 S 7 13 4 7 1017.2 1017.2 0.0
24/07:00am 24.2 26.7 20.3 79 2.5 SW 7 9 4 5 1017.0 1017.0 0.0
24/06:30am 24.5 27.3 20.4 78 2.7 SW 6 9 3 5 1016.8 1016.8 0.0
24/06:00am 22.9 24.6 19.3 80 2.3 SSW 9 13 5 7 1016.5 1016.5 0.0
24/05:30am 24.5 26.8 20.6 79 2.5 E 9 17 5 9 1016.3 1016.3 0.0
24/05:00am 23.0 25.0 19.2 79 2.4 SSW 7 11 4 6 1015.9 1015.9 0.0
24/04:30am 24.9 27.1 20.4 76 2.9 NNE 9 15 5 8 1015.9 1015.9 0.0
24/04:00am 25.1 27.0 20.6 76 2.9 NNE 11 17 6 9 1015.6 1015.6 0.0
24/03:30am 24.9 26.9 20.8 78 2.7 E 11 24 6 13 1015.7 1015.7 0.0
24/03:00am 24.7 26.1 20.4 77 2.8 ENE 13 17 7 9 1015.6 1015.6 0.0
24/02:30am 24.5 26.7 20.4 78 2.7 E 9 13 5 7 1015.5 1015.5 0.0
24/02:00am 24.5 26.5 20.0 76 2.9 E 9 13 5 7 1015.6 1015.6 0.0
24/01:30am 24.4 26.6 19.7 75 3.0 E 7 13 4 7 1015.7 1015.7 0.0
24/01:00am 24.4 26.2 19.5 74 3.1 ENE 9 13 5 7 1015.7 1015.7 0.0
24/12:30am 24.5 25.6 18.9 71 3.6 ENE 11 13 6 7 1016.0 1016.0 0.0
24/12:00am 24.8 25.4 18.7 69 3.9 ENE 13 17 7 9 1016.2 1016.2 0.0
 
Date/Time
EST
Temp
°C
App
Temp
°C
Dew
Point
Rel
Hum
%
Delta-T
°C
Wind Press
QNH
hPa
Press
MSL
hPa
Rain
since 9 am
mm
Dir
 
Spd
km/h
Gust
km/h
Spd
kts
Gust
kts
23/11:30pm 24.8 24.7 17.8 65 4.4 ENE 15 19 8 10 1016.7 1016.7 0.0
23/11:00pm 24.8 25.4 18.5 68 4.0 ENE 13 20 7 11 1017.0 1017.0 0.0
23/10:30pm 25.1 26.3 19.0 69 3.9 E 11 17 6 9 1017.2 1017.2 0.0
23/10:00pm 25.2 26.4 19.1 69 3.9 E 11 15 6 8 1017.1 1017.1 0.0
23/09:30pm 25.3 26.1 19.0 68 4.0 E 13 19 7 10 1017.0 1017.0 0.0
23/09:00pm 25.3 25.8 19.2 69 3.9 E 15 20 8 11 1016.7 1016.7 0.0
23/08:30pm 25.2 26.0 19.1 69 3.9 E 13 20 7 11 1016.4 1016.4 0.0
23/08:00pm 25.3 25.4 19.2 69 3.9 E 17 20 9 11 1016.0 1016.0 0.0
23/07:30pm 25.4 25.0 18.8 67 4.2 E 19 20 10 11 1015.7 1015.7 0.0
23/07:00pm 25.5 25.1 18.9 67 4.2 ENE 19 24 10 13 1015.6 1015.6 0.0
23/06:30pm 25.6 24.6 17.5 61 5.1 ENE 19 28 10 15 1015.2 1015.2 0.0
23/06:00pm 26.0 25.4 17.6 60 5.3 ENE 17 24 9 13 1014.8 1014.7 0.0
23/05:30pm 26.3 25.2 18.7 63 4.9 ENE 22 30 12 16 1014.6 1014.5 0.0
23/05:00pm 26.9 26.4 19.0 62 5.1 NE 20 30 11 16 1014.6 1014.5 0.0
23/04:30pm 27.1 26.6 19.2 62 5.1 ENE 20 30 11 16 1014.7 1014.6 0.0
23/04:00pm 27.6 26.9 19.4 61 5.3 ENE 22 32 12 17 1014.6 1014.5 0.0
23/03:30pm 28.3 27.5 19.2 57 5.9 ENE 22 32 12 17 1014.8 1014.7 0.0
23/03:00pm 28.4 27.1 18.2 54 6.5 ENE 22 30 12 16 1015.0 1015.0 0.0
23/02:30pm 28.9 28.5 18.9 54 6.5 NE 19 30 10 16 1015.2 1015.2 0.0
23/02:00pm 28.4 27.2 18.5 55 6.3 NE 22 32 12 17 1015.5 1015.5 0.0
23/01:30pm 28.3 27.1 18.4 55 6.3 NE 22 32 12 17 1015.8 1015.8 0.0
23/01:00pm 28.7 27.5 18.5 54 6.5 ENE 22 30 12 16 1016.0 1016.0 0.0
23/12:30pm 28.9 28.2 18.7 54 6.6 ENE 20 28 11 15 1016.3 1016.3 0.0
23/12:00pm 28.6 27.7 18.1 53 6.7 NE 20 32 11 17 1016.7 1016.7 0.0
23/11:30am 28.7 28.5 19.3 56 6.1 NE 19 26 10 14 1017.0 1017.0 0.0
23/11:00am 28.9 28.5 18.9 54 6.4 NE 19 24 10 13 1017.3 1017.3 0.0
23/10:30am 28.3 27.8 19.0 57 6.0 NE 20 28 11 15 1017.6 1017.6 0.0
23/10:00am 28.2 27.9 19.1 57 5.9 ENE 19 22 10 12 1017.8 1017.8 0.0
23/09:30am 27.8 27.8 19.8 61 5.2 ENE 19 24 10 13 1017.9 1017.9 0.0
23/09:00am 27.6 28.0 19.9 63 5.0 ENE 17 20 9 11 1017.9 1017.9 0.0
23/08:30am 26.6 27.5 19.2 64 4.8 NE 13 22 7 12 1017.9 1017.9 0.0
23/08:00am 25.9 27.1 20.0 70 3.8 NNE 13 17 7 9 1017.7 1017.7 0.0
23/07:30am 25.8 27.5 20.1 71 3.7 N 11 17 6 9 1017.4 1017.4 0.0
23/07:00am 25.3 27.1 20.3 74 3.3 NNE 11 19 6 10 1017.0 1017.0 0.0
23/06:30am 25.1 26.8 20.1 74 3.2 N 11 17 6 9 1016.7 1016.7 0.0
23/06:00am 24.8 27.0 20.5 77 2.8 NNE 9 13 5 7 1016.3 1016.3 0.0
23/05:30am 24.8 27.1 20.7 78 2.7 N 9 15 5 8 1015.9 1015.9 0.0
23/05:00am 24.8 26.9 20.9 79 2.6 N 11 15 6 8 1015.6 1015.6 0.0
23/04:30am 24.7 27.2 21.0 80 2.4 N 9 11 5 6 1015.3 1015.3 0.0
23/04:00am 24.9 26.9 20.8 78 2.7 NE 11 19 6 10 1015.0 1015.0 0.0
23/03:46am 24.9 26.9 20.8 78 2.7 NNE 11 19 6 10 1014.9 1014.9 0.0
23/03:30am 24.9 27.4 21.0 79 2.6 N 9 13 5 7 1015.0 1015.0 0.0
23/03:19am 24.9 27.4 21.0 79 2.6 N 9 13 5 7 1014.9 1014.9 0.0
23/03:00am 25.0 27.1 20.9 78 2.7 NNE 11 15 6 8 1015.0 1015.0 0.0
23/02:30am 25.1 26.8 21.0 78 2.7 N 13 19 7 10 1014.9 1014.9 0.0
23/02:00am 25.3 27.1 21.2 78 2.7 NNE 13 20 7 11 1014.8 1014.7 0.0
23/01:30am 25.3 27.1 21.2 78 2.7 NNE 13 20 7 11 1015.0 1015.0 0.0
23/01:00am 25.4 27.3 21.3 78 2.7 NNE 13 20 7 11 1015.4 1015.4 0.0
23/12:30am 25.4 27.0 21.5 79 2.6 NNE 15 22 8 12 1015.5 1015.5 0.0
23/12:00am 25.4 27.4 21.5 79 2.6 N 13 19 7 10 1015.9 1015.9 0.0
 
Date/Time
EST
Temp
°C
App
Temp
°C
Dew
Point
Rel
Hum
%
Delta-T
°C
Wind Press
QNH
hPa
Press
MSL
hPa
Rain
since 9 am
mm
Dir
 
Spd
km/h
Gust
km/h
Spd
kts
Gust
kts
22/11:30pm 25.4 27.5 21.7 80 2.5 N 13 17 7 9 1015.9 1015.9 0.0
22/11:00pm 25.4 27.4 21.5 79 2.6 N 13 19 7 10 1016.0 1016.0 0.0
22/10:30pm 25.5 27.7 21.8 80 2.5 N 13 17 7 9 1016.0 1016.0 0.0
22/10:00pm 25.6 27.4 21.9 80 2.5 NNE 15 20 8 11 1016.0 1016.0 0.0
22/09:30pm 25.7 27.6 22.0 80 2.5 NNE 15 19 8 10 1015.9 1015.9 0.0
22/09:00pm 25.8 27.4 22.1 80 2.5 NNE 17 20 9 11 1015.5 1015.5 0.0
22/08:56pm 25.8 27.2 21.9 79 2.6 NNE 17 20 9 11 1015.4 1015.4 0.0
22/08:30pm 25.9 28.3 22.2 80 2.5 NNE 13 17 7 9 1015.2 1015.2 0.0
22/08:02pm 26.0 27.9 22.1 79 2.6 NE 15 19 8 10 1015.1 1015.1 0.0
22/08:00pm 26.0 27.9 22.1 79 2.6 NE 15 19 8 10 1015.1 1015.1 0.0
22/07:30pm 26.1 28.2 22.4 80 2.5 NE 15 20 8 11 1014.7 1014.6 0.0
22/07:00pm 26.2 28.3 22.5 80 2.5 NNE 15 20 8 11 1014.2 1014.1 0.0
22/06:30pm 26.3 27.6 22.4 79 2.6 N 19 24 10 13 1014.1 1014.0 0.0
22/06:00pm 26.6 27.5 22.0 76 3.1 NE 20 28 11 15 1013.7 1013.6 0.0
22/05:30pm 27.2 28.0 22.4 75 3.2 NE 22 30 12 16 1013.2 1013.1 0.0
22/05:00pm 27.6 28.1 21.9 71 3.8 NE 22 30 12 16 1012.8 1012.7 0.0
22/04:30pm 27.9 28.5 22.1 70 3.9 NE 22 32 12 17 1012.6 1012.5 0.0
22/04:00pm 29.0 29.8 22.5 68 4.4 NE 22 30 12 16 1012.5 1012.4 0.0
22/03:30pm 28.7 28.9 22.0 67 4.5 NE 24 32 13 17 1012.5 1012.4 0.0
22/03:00pm 29.1 29.4 22.3 66 4.6 ENE 24 33 13 18 1012.8 1012.7 0.0
22/02:30pm 29.2 29.5 22.2 66 4.7 ENE 24 33 13 18 1013.0 1012.9 0.0
22/02:00pm 29.3 29.0 21.8 64 5.0 NNE 26 33 14 18 1013.4 1013.3 0.0
22/01:30pm 28.7 28.3 21.7 66 4.7 NE 26 33 14 18 1013.7 1013.6 0.0
22/01:00pm 29.7 29.4 21.9 63 5.3 NE 26 32 14 17 1013.9 1013.8 0.0
22/12:30pm 30.2 30.3 21.8 60 5.7 ENE 24 30 13 16 1014.3 1014.2 0.0
22/12:00pm 30.2 30.8 22.1 62 5.5 ENE 22 30 12 16 1014.8 1014.7 0.0
22/11:30am 30.3 31.5 22.5 63 5.3 NE 20 28 11 15 1015.0 1015.0 0.0
22/11:00am 29.4 30.8 21.9 64 5.1 NE 17 26 9 14 1015.5 1015.5 0.0
22/10:30am 30.1 32.2 22.5 63 5.2 NE 15 24 8 13 1015.9 1015.9 0.0
22/10:00am 29.3 30.7 21.0 61 5.5 NNW 15 20 8 11 1015.9 1015.9 0.0
22/09:30am 28.6 30.0 20.3 60 5.5 N 13 20 7 11 1016.1 1016.1 0.0
22/09:00am 28.0 29.2 20.6 64 4.9 NNW 15 22 8 12 1016.3 1016.3 0.0
22/08:30am 28.2 29.7 21.2 65 4.7 NNW 15 19 8 10 1016.2 1016.2 0.0
22/08:00am 27.6 29.2 21.4 69 4.1 N 15 20 8 11 1016.4 1016.4 0.0
22/07:30am 26.7 28.5 21.2 72 3.6 NNW 13 19 7 10 1016.4 1016.4 0.0
22/07:00am 26.1 28.0 21.3 75 3.2 NNW 13 19 7 10 1016.2 1016.2 0.0
22/06:30am 25.9 28.7 21.6 77 2.9 NW 9 13 5 7 1016.1 1016.1 0.0
22/06:00am 25.3 28.1 21.6 80 2.5 NNW 9 13 5 7 1015.5 1015.5 0.0
22/05:30am 24.7 27.9 21.2 81 2.3 N 6 9 3 5 1015.1 1015.1 0.0
22/05:00am 24.6 27.7 21.1 81 2.3 N 6 9 3 5 1014.7 1014.6 0.0
22/04:30am 24.6 27.6 21.3 82 2.2 N 7 11 4 6 1014.1 1014.0 0.0
22/04:00am 24.6 27.0 21.5 83 2.1 N 11 17 6 9 1013.7 1013.6 0.0
22/03:58am 24.6 27.0 21.5 83 2.1 N 11 17 6 9 1013.6 1013.5 0.0
22/03:30am 24.7 27.2 21.8 84 1.9 N 11 17 6 9 1013.4 1013.3 0.0
22/03:00am 24.9 27.4 21.8 83 2.1 N 11 15 6 8 1013.4 1013.3 0.0
22/02:30am 25.0 28.5 22.1 84 1.9 N 7 9 4 5 1013.4 1013.3 0.0
22/02:09am 25.1 27.4 22.0 83 2.1 NNE 13 17 7 9 1013.4 1013.3 0.0
22/02:00am 25.1 27.4 22.0 83 2.1 NNE 13 20 7 11 1013.3 1013.2 0.0
22/01:30am 25.3 27.6 22.0 82 2.2 NNE 13 20 7 11 1013.4 1013.3 0.0
22/01:00am 25.2 28.1 21.7 81 2.3 N 9 15 5 8 1014.0 1013.9 0.0
22/12:30am 25.4 27.5 21.7 80 2.5 NNE 13 19 7 10 1014.2 1014.1 0.0
22/12:00am 25.6 28.1 21.7 79 2.6 NNE 11 17 6 9 1014.8 1014.7 0.0
 
Date/Time
EST
Temp
°C
App
Temp
°C
Dew
Point
Rel
Hum
%
Delta-T
°C
Wind Press
QNH
hPa
Press
MSL
hPa
Rain
since 9 am
mm
Dir
 
Spd
km/h
Gust
km/h
Spd
kts
Gust
kts
21/11:30pm 25.6 27.7 21.7 79 2.6 NNE 13 17 7 9 1015.0 1015.0 0.0
21/11:00pm 25.5 28.1 22.0 81 2.3 NNE 11 17 6 9 1015.1 1015.1 0.0
21/10:30pm 25.6 28.2 21.9 80 2.5 NNE 11 17 6 9 1015.0 1015.0 0.0
21/10:00pm 25.7 27.6 22.0 80 2.5 NNE 15 22 8 12 1015.0 1015.0 0.0
21/09:30pm 25.7 27.9 21.8 79 2.6 NNE 13 19 7 10 1014.9 1014.9 0.0
21/09:09pm 25.8 27.2 21.9 79 2.6 NE 17 20 9 11 1014.6 1014.5 0.0
21/09:00pm 25.8 28.0 21.9 79 2.6 NNE 13 19 7 10 1014.5 1014.4 0.0
21/08:30pm 25.8 28.0 21.9 79 2.6 NNE 13 20 7 11 1014.5 1014.4 0.0
21/08:00pm 25.9 27.4 22.0 79 2.6 NNE 17 22 9 12 1014.3 1014.2 0.0
21/07:30pm 25.9 27.5 22.2 80 2.5 NNE 17 26 9 14 1013.9 1013.8 0.0

Other Formats:

Comma delimited format used in spreadsheet applications
http://www.bom.gov.au/fwo/IDQ60801/IDQ60801.94381.axf

JavaScript Object Notation format (JSON) in row-major order
http://www.bom.gov.au/fwo/IDQ60801/IDQ60801.94381.json